createdAt,value
2018-06-08T00:00:49.489Z,19.67
2018-06-08T00:03:18.898Z,20.93
2018-06-08T00:05:48.271Z,19.87
2018-06-08T00:08:17.766Z,17.70
2018-06-08T00:10:47.210Z,18.37
2018-06-08T00:13:16.696Z,19.33
2018-06-08T00:15:46.135Z,20.23
2018-06-08T00:18:15.975Z,19.67
2018-06-08T00:20:45.090Z,19.83
2018-06-08T00:23:15.000Z,20.63
2018-06-08T00:25:44.996Z,22.60
2018-06-08T00:28:18.797Z,21.47
2018-06-08T00:30:49.334Z,18.83
2018-06-08T00:33:18.672Z,18.37
2018-06-08T00:35:48.650Z,17.27
2018-06-08T00:38:19.894Z,16.57
2018-06-08T00:40:49.972Z,18.47
2018-06-08T00:43:19.354Z,25.03
2018-06-08T00:45:50.270Z,23.83
2018-06-08T00:48:20.435Z,37.13
2018-06-08T00:50:49.792Z,35.30
2018-06-08T00:53:19.179Z,40.30
2018-06-08T00:55:48.512Z,44.50
2018-06-08T00:58:18.680Z,44.20
2018-06-08T01:00:48.822Z,42.20
2018-06-08T01:03:18.179Z,42.77
2018-06-08T01:05:48.559Z,40.50
2018-06-08T01:08:18.359Z,30.70
2018-06-08T01:10:47.530Z,35.80
2018-06-08T01:13:17.513Z,35.70
2018-06-08T01:15:46.857Z,36.77
2018-06-08T01:18:15.940Z,33.93
2018-06-08T01:20:45.951Z,17.03
2018-06-08T01:23:15.431Z,17.97
2018-06-08T01:25:44.923Z,19.30
2018-06-08T01:28:14.289Z,17.53
2018-06-08T01:30:43.640Z,17.73
2018-06-08T01:33:14.009Z,16.73
2018-06-08T01:35:43.089Z,29.03
2018-06-08T01:38:12.485Z,34.47
2018-06-08T01:40:42.176Z,23.87
2018-06-08T01:43:11.556Z,20.67
2018-06-08T01:45:40.984Z,20.57
2018-06-08T01:48:15.585Z,23.90
2018-06-08T01:50:44.992Z,28.50
2018-06-08T01:53:14.976Z,23.30
2018-06-08T01:55:44.056Z,29.80
2018-06-08T01:58:13.550Z,30.80
2018-06-08T02:00:43.022Z,32.03
2018-06-08T02:03:12.466Z,32.43
2018-06-08T02:05:41.858Z,32.33
2018-06-08T02:08:11.858Z,33.23
2018-06-08T02:10:41.322Z,26.53
2018-06-08T02:13:15.681Z,21.03
2018-06-08T02:15:45.108Z,18.73
2018-06-08T02:18:14.575Z,16.43
2018-06-08T02:20:47.991Z,17.87
2018-06-08T02:23:17.935Z,24.40
2018-06-08T02:25:47.441Z,28.47
2018-06-08T02:28:16.829Z,30.00
2018-06-08T02:30:46.296Z,30.47
2018-06-08T02:33:15.837Z,28.67
2018-06-08T02:35:46.060Z,29.10
2018-06-08T02:38:15.493Z,26.63
2018-06-08T02:40:44.894Z,24.37
2018-06-08T02:43:14.256Z,19.13
2018-06-08T02:45:44.534Z,18.33
2018-06-08T02:48:13.977Z,26.07
2018-06-08T02:50:43.866Z,24.57
2018-06-08T02:53:13.295Z,22.13
2018-06-08T02:55:42.723Z,16.93
2018-06-08T02:58:12.209Z,14.73
2018-06-08T03:00:42.193Z,14.80
2018-06-08T03:03:11.666Z,14.00
2018-06-08T03:05:41.184Z,13.93
2018-06-08T03:08:10.635Z,13.47
2018-06-08T03:10:40.032Z,14.73
2018-06-08T03:13:09.485Z,14.47
2018-06-08T03:15:38.816Z,13.43
2018-06-08T03:18:08.267Z,14.90
2018-06-08T03:20:38.331Z,16.03
2018-06-08T03:23:08.422Z,13.67
2018-06-08T03:25:37.848Z,12.60
2018-06-08T03:28:07.217Z,12.80
2018-06-08T03:30:36.997Z,13.57
2018-06-08T03:33:06.815Z,13.53
2018-06-08T03:35:36.317Z,14.30
2018-06-08T03:38:06.236Z,14.33
2018-06-08T03:40:35.675Z,15.83
2018-06-08T03:43:05.412Z,15.30
2018-06-08T03:45:35.533Z,16.50
2018-06-08T03:48:05.604Z,17.93
2018-06-08T03:50:35.056Z,15.60
2018-06-08T03:53:05.032Z,16.60
2018-06-08T03:55:35.354Z,15.43
2018-06-08T03:58:05.695Z,15.77
2018-06-08T04:00:40.487Z,18.67
2018-06-08T04:03:09.954Z,21.87
2018-06-08T04:05:39.926Z,23.57
2018-06-08T04:08:09.278Z,25.57
2018-06-08T04:10:39.925Z,25.27
2018-06-08T04:13:09.996Z,25.00
2018-06-08T04:15:39.104Z,26.03
2018-06-08T04:18:09.898Z,24.63
2018-06-08T04:20:39.241Z,24.57
2018-06-08T04:23:08.571Z,25.67
2018-06-08T04:25:39.338Z,27.20
2018-06-08T04:28:08.800Z,26.23
2018-06-08T04:30:38.205Z,29.67
2018-06-08T04:33:07.666Z,30.17
2018-06-08T04:35:36.818Z,30.73
2018-06-08T04:38:06.240Z,31.57
2018-06-08T04:40:36.257Z,32.37
2018-06-08T04:43:05.793Z,31.17
2018-06-08T04:45:35.212Z,33.87
2018-06-08T04:48:04.633Z,33.43
2018-06-08T04:50:34.067Z,35.97
2018-06-08T04:53:03.509Z,38.23
2018-06-08T04:55:33.007Z,40.73
2018-06-08T04:58:02.498Z,40.97
2018-06-08T05:00:32.384Z,45.27
2018-06-08T05:03:01.730Z,46.90
2018-06-08T05:05:30.790Z,50.27
2018-06-08T05:08:00.137Z,55.00
2018-06-08T05:10:29.547Z,65.27
2018-06-08T05:12:58.892Z,60.87
2018-06-08T05:15:28.344Z,59.20
2018-06-08T05:17:57.713Z,57.67
2018-06-08T05:20:27.164Z,52.20
2018-06-08T05:22:56.661Z,44.13
2018-06-08T05:25:26.020Z,37.97
2018-06-08T05:27:55.492Z,34.03
2018-06-08T05:30:26.662Z,31.63
2018-06-08T05:32:56.716Z,32.13
2018-06-08T05:35:26.162Z,31.20
2018-06-08T05:37:55.603Z,30.77
2018-06-08T05:40:26.200Z,29.23
2018-06-08T05:42:55.659Z,25.87
2018-06-08T05:45:25.235Z,25.90
2018-06-08T05:47:54.608Z,25.17
2018-06-08T05:50:23.981Z,22.03
2018-06-08T05:52:53.418Z,20.37
2018-06-08T05:55:22.769Z,20.93
2018-06-08T05:57:52.352Z,18.53
2018-06-08T06:00:21.861Z,20.30
2018-06-08T06:02:51.400Z,17.63
2018-06-08T06:05:20.899Z,17.87
2018-06-08T06:07:51.229Z,18.00
2018-06-08T06:10:20.611Z,15.87
2018-06-08T06:12:49.731Z,14.50
2018-06-08T06:15:19.099Z,14.93
2018-06-08T06:17:48.485Z,14.17
2018-06-08T06:20:17.973Z,13.90
2018-06-08T06:22:47.849Z,14.60
2018-06-08T06:25:17.233Z,14.77
2018-06-08T06:27:46.347Z,14.33
2018-06-08T06:30:15.837Z,14.37
2018-06-08T06:32:45.297Z,13.40
2018-06-08T06:35:14.675Z,13.47
2018-06-08T06:37:44.284Z,12.83
2018-06-08T06:40:13.668Z,13.13
2018-06-08T06:42:43.550Z,13.67
2018-06-08T06:45:13.366Z,14.13
2018-06-08T06:47:42.801Z,16.27
2018-06-08T06:50:12.201Z,17.50
2018-06-08T06:52:41.655Z,17.07
2018-06-08T06:55:11.106Z,17.03
2018-06-08T06:57:40.476Z,15.73
2018-06-08T07:00:10.366Z,18.63
2018-06-08T07:02:39.927Z,18.30
2018-06-08T07:05:09.444Z,18.23
2018-06-08T07:07:39.458Z,19.67
2018-06-08T07:10:09.959Z,19.03
2018-06-08T07:12:39.122Z,17.70
2018-06-08T07:15:08.586Z,18.23
2018-06-08T07:17:38.008Z,18.07
2018-06-08T07:20:07.435Z,18.80
2018-06-08T07:22:37.515Z,18.53
2018-06-08T07:25:06.909Z,18.50
2018-06-08T07:27:36.289Z,19.63
2018-06-08T07:30:06.037Z,19.93
2018-06-08T07:32:35.513Z,20.73
2018-06-08T07:35:05.047Z,18.77
2018-06-08T07:37:35.133Z,16.47
2018-06-08T07:40:04.663Z,17.23
2018-06-08T07:42:34.359Z,17.97
2018-06-08T07:45:03.754Z,16.77
2018-06-08T07:47:39.947Z,17.03
2018-06-08T07:59:49.381Z,17.10
2018-06-08T08:02:52.579Z,17.27
2018-06-08T08:05:36.175Z,16.20
2018-06-08T08:54:07.190Z,16.10
2018-06-08T08:56:36.727Z,15.60
2018-06-08T08:59:06.187Z,16.70
2018-06-08T09:01:35.612Z,14.87
2018-06-08T09:04:05.118Z,12.20
2018-06-08T09:06:34.679Z,12.30
2018-06-08T09:09:05.240Z,12.93
2018-06-08T09:11:34.336Z,13.00
2018-06-08T09:14:03.519Z,12.73
2018-06-08T09:16:32.966Z,12.73
2018-06-08T09:19:02.849Z,12.33
2018-06-08T09:21:31.934Z,13.37
2018-06-08T09:24:01.363Z,10.60
2018-06-08T09:26:30.733Z,10.40
2018-06-08T09:29:00.072Z,7.63
2018-06-08T09:31:29.544Z,8.33
2018-06-08T09:33:59.382Z,7.93
2018-06-08T09:36:28.735Z,9.10
2018-06-08T09:38:58.746Z,9.87
2018-06-08T09:41:28.075Z,7.27
2018-06-08T09:43:57.414Z,7.63
2018-06-08T09:46:26.868Z,9.30
2018-06-08T09:48:56.321Z,10.23
2018-06-08T09:51:25.760Z,9.33
2018-06-08T09:53:55.123Z,9.27
2018-06-08T09:56:25.242Z,8.60
2018-06-08T09:58:54.574Z,9.60
2018-06-08T10:01:24.026Z,8.90
2018-06-08T10:03:53.076Z,8.80
2018-06-08T10:06:22.434Z,9.37
2018-06-08T10:08:51.798Z,8.60
2018-06-08T10:11:21.280Z,7.70
2018-06-08T10:13:50.668Z,7.77
2018-06-08T10:16:20.051Z,7.20
2018-06-08T10:18:49.385Z,8.20
2018-06-08T10:21:18.783Z,7.30
2018-06-08T10:23:48.132Z,10.20
2018-06-08T10:26:17.567Z,11.30
2018-06-08T10:28:46.911Z,11.37
2018-06-08T10:31:16.443Z,9.80
2018-06-08T10:33:45.775Z,10.00
2018-06-08T10:36:15.183Z,9.30
2018-06-08T10:38:44.658Z,8.60
2018-06-08T10:41:14.073Z,8.67
2018-06-08T10:43:43.460Z,10.07
2018-06-08T10:46:12.888Z,10.40
2018-06-08T10:48:42.280Z,9.00
2018-06-08T10:51:12.140Z,10.57
2018-06-08T10:53:41.540Z,9.27
2018-06-08T10:56:11.458Z,10.37
2018-06-08T10:58:40.809Z,11.40
2018-06-08T11:01:10.203Z,10.20
2018-06-08T11:03:39.602Z,10.03
2018-06-08T11:06:08.662Z,7.27
2018-06-08T11:08:38.022Z,8.33
2018-06-08T11:11:07.463Z,10.20
2018-06-08T11:13:36.868Z,9.03
2018-06-08T11:16:06.308Z,8.07
2018-06-08T11:18:35.370Z,7.10
2018-06-08T11:21:04.740Z,9.47
2018-06-08T11:23:34.725Z,8.50
2018-06-08T11:26:04.054Z,10.07
2018-06-08T11:28:33.425Z,9.00
2018-06-08T11:31:02.492Z,8.33
2018-06-08T11:33:31.879Z,8.90
2018-06-08T11:36:01.258Z,8.60
2018-06-08T11:38:30.637Z,9.37
2018-06-08T11:41:00.107Z,9.13
2018-06-08T11:43:29.447Z,7.37
2018-06-08T11:45:58.848Z,6.73
2018-06-08T11:48:28.181Z,6.57
2018-06-08T11:50:57.552Z,7.90
2018-06-08T11:53:26.907Z,6.80
2018-06-08T11:55:56.423Z,5.30
2018-06-08T11:58:25.760Z,5.60
2018-06-08T12:00:55.135Z,5.70
2018-06-08T12:03:24.501Z,6.10
2018-06-08T12:05:53.860Z,5.93
2018-06-08T12:08:23.198Z,5.73
2018-06-08T12:10:52.824Z,4.90
2018-06-08T12:13:22.180Z,5.33
2018-06-08T12:15:52.472Z,5.73
2018-06-08T12:18:22.550Z,6.10
2018-06-08T12:20:51.903Z,6.60
2018-06-08T12:23:21.270Z,4.77
2018-06-08T12:25:50.657Z,4.27
2018-06-08T12:28:20.091Z,4.70
2018-06-08T12:30:49.484Z,4.20
2018-06-08T12:33:18.504Z,5.50
2018-06-08T12:35:47.933Z,5.03
2018-06-08T12:38:17.345Z,4.90
2018-06-08T12:40:46.683Z,4.90
2018-06-08T12:43:16.143Z,5.70
2018-06-08T12:45:45.611Z,4.77
2018-06-08T12:48:15.025Z,4.10
2018-06-08T12:50:44.961Z,4.17
2018-06-08T12:53:14.427Z,4.87
2018-06-08T12:55:43.981Z,4.70
2018-06-08T12:58:14.783Z,5.07
2018-06-08T13:00:44.013Z,4.90
2018-06-08T13:03:13.345Z,5.63
2018-06-08T13:05:42.883Z,4.37
2018-06-08T13:08:12.934Z,5.30
2018-06-08T13:10:42.395Z,4.73
2018-06-08T13:13:11.839Z,4.20
2018-06-08T13:15:41.506Z,5.00
2018-06-08T13:18:11.038Z,4.43
2018-06-08T13:20:40.422Z,4.57
2018-06-08T13:23:09.917Z,4.67
2018-06-08T13:25:39.536Z,4.70
2018-06-08T13:28:09.304Z,3.80
2018-06-08T13:30:38.676Z,3.87
2018-06-08T13:33:08.189Z,4.07
2018-06-08T13:35:38.651Z,4.53
2018-06-08T13:38:08.174Z,4.40
2018-06-08T13:40:37.496Z,4.40
2018-06-08T13:43:06.896Z,4.37
2018-06-08T13:45:36.380Z,4.60
2018-06-08T13:48:05.762Z,4.10
2018-06-08T13:50:35.294Z,4.27
2018-06-08T13:53:04.645Z,4.83
2018-06-08T13:55:34.047Z,5.20
2018-06-08T13:58:03.512Z,4.67
2018-06-08T14:00:32.836Z,4.30
2018-06-08T14:03:02.423Z,4.20
2018-06-08T14:05:32.170Z,4.00
2018-06-08T14:08:01.505Z,3.87
2018-06-08T14:10:30.950Z,4.00
2018-06-08T14:13:00.296Z,4.87
2018-06-08T14:15:29.733Z,4.80
2018-06-08T14:17:59.036Z,4.30
2018-06-08T14:20:28.361Z,4.80
2018-06-08T14:22:57.712Z,4.20
2018-06-08T14:25:27.034Z,4.03
2018-06-08T14:27:56.408Z,4.47
2018-06-08T14:30:26.202Z,4.23
2018-06-08T14:32:56.023Z,4.43
2018-06-08T14:35:25.582Z,4.50
2018-06-08T14:37:56.173Z,4.80
2018-06-08T14:40:25.613Z,4.73
2018-06-08T14:42:54.990Z,3.80
2018-06-08T14:45:24.392Z,4.40
2018-06-08T14:47:54.306Z,4.13
2018-06-08T14:50:23.676Z,4.00
2018-06-08T14:52:53.134Z,3.97
2018-06-08T14:55:24.407Z,3.80
2018-06-08T14:57:54.835Z,3.83
2018-06-08T15:00:24.845Z,4.17
2018-06-08T15:02:56.234Z,5.20
2018-06-08T15:05:25.738Z,4.80
2018-06-08T15:07:55.793Z,5.10
2018-06-08T15:10:25.154Z,4.93
2018-06-08T15:12:54.703Z,4.67
2018-06-08T15:15:24.518Z,4.73
2018-06-08T15:17:53.868Z,4.50
2018-06-08T15:20:23.331Z,4.80
2018-06-08T15:22:52.787Z,4.77
2018-06-08T15:25:22.565Z,4.23
2018-06-08T15:27:52.053Z,4.43
2018-06-08T15:30:21.862Z,3.10
2018-06-08T15:32:52.135Z,2.63
2018-06-08T15:35:21.689Z,2.40
2018-06-08T15:37:51.119Z,2.57
2018-06-08T15:40:20.714Z,3.00
2018-06-08T15:42:50.525Z,3.43
2018-06-08T15:45:20.367Z,4.60
2018-06-08T15:47:50.894Z,4.23
2018-06-08T15:50:20.356Z,3.83
2018-06-08T15:52:49.739Z,3.80
2018-06-08T15:55:19.433Z,3.53
2018-06-08T15:57:48.818Z,3.67
2018-06-08T16:00:18.330Z,4.17
2018-06-08T16:02:48.708Z,4.37
2018-06-08T16:05:19.449Z,3.90
2018-06-08T16:07:48.844Z,3.87
2018-06-08T16:10:18.216Z,3.40
2018-06-08T16:12:48.270Z,3.47
2018-06-08T16:15:18.246Z,3.50
2018-06-08T16:17:47.651Z,3.40
2018-06-08T16:20:25.223Z,3.00
2018-06-08T16:22:54.637Z,3.63
2018-06-08T16:25:24.104Z,3.00
2018-06-08T16:27:53.488Z,3.17
2018-06-08T16:30:22.876Z,2.80
2018-06-08T16:32:52.217Z,2.80
2018-06-08T16:35:21.660Z,3.90
2018-06-08T16:37:51.098Z,2.73
2018-06-08T16:40:20.519Z,3.30
2018-06-08T16:42:49.880Z,3.30
2018-06-08T16:45:20.283Z,3.50
2018-06-08T16:47:50.091Z,4.03
2018-06-08T16:50:19.465Z,3.40
2018-06-08T16:52:48.823Z,3.33
2018-06-08T16:55:19.179Z,3.87
2018-06-08T16:57:48.568Z,3.43
2018-06-08T17:00:18.435Z,3.47
2018-06-08T17:02:48.827Z,3.50
2018-06-08T17:05:19.234Z,3.33
2018-06-08T17:07:48.746Z,3.30
2018-06-08T17:10:19.773Z,3.27
2018-06-08T17:12:49.592Z,3.20
2018-06-08T17:15:19.594Z,3.30
2018-06-08T17:17:48.925Z,3.10
2018-06-08T17:20:18.288Z,3.33
2018-06-08T17:22:48.154Z,3.10
2018-06-08T17:25:17.502Z,3.10
2018-06-08T17:27:47.452Z,3.40
2018-06-08T17:30:16.934Z,2.93
2018-06-08T17:32:46.386Z,3.20
2018-06-08T17:35:15.750Z,3.20
2018-06-08T17:37:45.322Z,3.00
2018-06-08T17:40:15.785Z,3.30
2018-06-08T17:42:45.349Z,3.30
2018-06-08T17:45:15.251Z,3.53
2018-06-08T17:47:44.710Z,3.80
2018-06-08T17:50:14.929Z,3.90
2018-06-08T17:52:44.405Z,3.70
2018-06-08T17:55:13.779Z,3.70
2018-06-08T17:57:43.863Z,3.40
2018-06-08T18:00:18.459Z,3.67
2018-06-08T18:02:47.886Z,4.10
2018-06-08T18:05:19.279Z,3.50
2018-06-08T18:07:49.975Z,3.87
2018-06-08T18:10:19.829Z,4.10
2018-06-08T18:12:49.358Z,4.10
2018-06-08T18:15:20.965Z,3.77
2018-06-08T18:17:50.991Z,3.87
2018-06-08T18:20:20.830Z,3.70
2018-06-08T18:22:50.206Z,4.10
2018-06-08T18:25:19.908Z,3.47
2018-06-08T18:27:50.193Z,3.77
2018-06-08T18:30:26.898Z,4.90
2018-06-08T18:32:56.347Z,3.43
2018-06-08T18:35:26.548Z,3.40
2018-06-08T18:37:55.941Z,3.10
2018-06-08T18:40:28.164Z,3.10
2018-06-08T18:42:57.605Z,5.00
2018-06-08T18:45:27.083Z,4.60
2018-06-08T18:47:57.295Z,3.00
2018-06-08T18:50:27.147Z,2.77
2018-06-08T18:52:56.566Z,2.93
2018-06-08T18:55:26.077Z,3.20
2018-06-08T18:57:55.470Z,3.00
2018-06-08T19:00:24.834Z,2.83
2018-06-08T19:02:54.304Z,3.30
2018-06-08T19:05:23.765Z,2.80
2018-06-08T19:07:53.084Z,2.63
2018-06-08T19:10:23.090Z,2.60
2018-06-08T19:12:52.538Z,2.50
2018-06-08T19:15:23.332Z,2.80
2018-06-08T19:17:53.226Z,3.03
2018-06-08T19:20:22.690Z,2.70
2018-06-08T19:22:52.058Z,2.70
2018-06-08T19:25:21.980Z,2.70
2018-06-08T19:27:52.607Z,2.57
2018-06-08T19:30:23.759Z,2.83
2018-06-08T19:32:54.431Z,2.27
2018-06-08T19:35:24.590Z,2.73
2018-06-08T19:37:58.289Z,2.63
2018-06-08T19:40:28.255Z,2.70
2018-06-08T19:42:57.643Z,2.73
2018-06-08T19:45:28.145Z,2.40
2018-06-08T19:47:57.741Z,2.30
2018-06-08T19:50:28.538Z,2.70
2018-06-08T19:52:57.908Z,2.23
2018-06-08T19:55:28.127Z,2.70
2018-06-08T19:57:58.232Z,2.57
2018-06-08T20:00:27.733Z,2.70
2018-06-08T20:02:57.135Z,2.60
2018-06-08T20:05:26.588Z,2.87
2018-06-08T20:07:56.177Z,2.60
2018-06-08T20:10:25.554Z,2.53
2018-06-08T20:12:54.959Z,2.40
2018-06-08T20:15:24.398Z,2.90
2018-06-08T20:17:54.052Z,2.70
2018-06-08T20:20:23.536Z,2.80
2018-06-08T20:22:52.573Z,3.00
2018-06-08T20:25:21.920Z,2.60
2018-06-08T20:27:51.532Z,2.90
2018-06-08T20:30:20.976Z,2.80
2018-06-08T20:32:50.378Z,3.00
2018-06-08T20:35:19.834Z,2.90
2018-06-08T20:37:49.402Z,2.87
2018-06-08T20:40:18.920Z,2.70
2018-06-08T20:42:48.324Z,3.30
2018-06-08T20:45:17.770Z,2.97
2018-06-08T20:47:46.900Z,3.30
2018-06-08T20:50:16.449Z,3.40
2018-06-08T20:52:47.254Z,3.67
2018-06-08T20:55:16.645Z,3.40
2018-06-08T20:57:57.294Z,3.20
2018-06-08T21:00:27.008Z,4.00
2018-06-08T21:02:56.595Z,3.53
2018-06-08T21:05:25.683Z,3.60
2018-06-08T21:07:54.874Z,3.40
2018-06-08T21:10:24.289Z,3.33
2018-06-08T21:12:53.328Z,3.60
2018-06-08T21:15:22.979Z,3.43
2018-06-08T21:17:53.115Z,3.13
2018-06-08T21:20:22.639Z,3.60
2018-06-08T21:22:51.985Z,3.30
2018-06-08T21:25:21.521Z,4.47
2018-06-08T21:27:50.690Z,3.77
2018-06-08T21:30:20.221Z,3.93
2018-06-08T21:32:50.571Z,3.50
2018-06-08T21:35:20.118Z,3.80
2018-06-08T21:37:49.840Z,3.60
2018-06-08T21:40:19.478Z,4.10
2018-06-08T21:42:49.456Z,3.40
2018-06-08T21:45:18.849Z,3.67
2018-06-08T21:47:48.366Z,3.60
2018-06-08T21:50:17.774Z,3.80
2018-06-08T21:52:47.295Z,3.73
2018-06-08T21:55:16.728Z,3.83
2018-06-08T21:57:46.160Z,3.30
2018-06-08T22:00:15.663Z,3.80
2018-06-08T22:02:45.113Z,4.20
2018-06-08T22:05:14.244Z,3.63
2018-06-08T22:07:43.775Z,3.80
2018-06-08T22:10:13.738Z,3.70
2018-06-08T22:12:43.151Z,4.20
2018-06-08T22:15:12.296Z,3.60
2018-06-08T22:17:41.755Z,4.27
2018-06-08T22:20:11.270Z,3.80
2018-06-08T22:22:40.717Z,3.97
2018-06-08T22:25:10.126Z,4.00
2018-06-08T22:27:39.588Z,3.70
2018-06-08T22:30:09.133Z,4.00
2018-06-08T22:32:39.196Z,4.20
2018-06-08T22:35:08.903Z,3.20
2018-06-08T22:37:38.301Z,3.37
2018-06-08T22:40:07.983Z,3.40
2018-06-08T22:42:37.355Z,3.30
2018-06-08T22:45:06.841Z,3.37
2018-06-08T22:47:36.214Z,3.47
2018-06-08T22:50:05.769Z,3.43
2018-06-08T22:52:35.291Z,2.80
2018-06-08T22:55:04.703Z,3.23
2018-06-08T22:57:34.851Z,3.37
2018-06-08T23:00:04.321Z,3.20
2018-06-08T23:02:33.839Z,3.37
2018-06-08T23:05:03.169Z,3.40
2018-06-08T23:07:32.510Z,3.27
2018-06-08T23:10:02.710Z,3.37
2018-06-08T23:12:33.572Z,3.83
2018-06-08T23:15:03.050Z,3.40
2018-06-08T23:17:33.042Z,3.47
2018-06-08T23:20:02.576Z,3.20
2018-06-08T23:22:33.584Z,3.47
2018-06-08T23:25:02.716Z,3.63
2018-06-08T23:27:32.090Z,3.30
2018-06-08T23:30:01.609Z,3.07
2018-06-08T23:32:31.543Z,3.40
2018-06-08T23:35:01.006Z,4.07
2018-06-08T23:37:30.469Z,3.70
2018-06-08T23:40:00.431Z,3.77
2018-06-08T23:42:29.832Z,3.73
2018-06-08T23:44:58.908Z,3.90
2018-06-08T23:47:28.282Z,3.47
2018-06-08T23:49:57.658Z,3.67
2018-06-08T23:52:27.171Z,4.20
2018-06-08T23:54:56.918Z,4.23
2018-06-08T23:57:26.477Z,3.70
2018-06-08T23:59:56.086Z,3.37
